Terminal Aerodrome Forecast
Issued by NWS

Home | Current Version | Previous Version | Text Only | Print | Product List | Glossary On
Versions: 1 2 3 4 5 6 7 8 9 10 11
991
FTUS42 KTBW 230548
TAFPIE
TAF
KPIE 230548Z 2306/2406 VRB03KT P6SM FEW050 BKN250
     FM231500 05006KT P6SM SCT030 BKN070
     FM231800 30009KT P6SM SCT050 BKN250
     FM240100 30005KT P6SM FEW050 BKN250=

USA.gov is the U.S. government's official web portal to all federal, state and local government web resources and services.